Time;durP1;ratioP1;P1;durP2;ratioP2;P2;SDS_P1;SDS_P2;PMS_P1;PMS_P2;Temp;Humidity;BMP_temperature;BMP_pressure;BME280_temperature;BME280_humidity;BME280_pressure;Samples;Min_cycle;Max_cycle;Signal;HPM_P1;HPM_P2
2023/04/20 00:00:36;;;;;;;8.45;4.88;;;;;;;3.23;31.80;95648.16;4987212;28;20561;-81
2023/04/20 00:03:02;;;;;;;9.07;4.97;;;;;;;3.03;36.07;95650.69;5005364;28;20056;-82
2023/04/20 00:05:28;;;;;;;9.98;4.45;;;;;;;2.48;37.02;95645.63;4986689;28;20108;-81
2023/04/20 00:07:54;;;;;;;13.73;7.85;;;;;;;2.33;38.94;95643.31;4993825;28;20459;-81
2023/04/20 00:10:19;;;;;;;9.63;6.03;;;;;;;2.57;36.11;95644.03;4981187;28;20053;-82
2023/04/20 00:12:45;;;;;;;11.10;5.68;;;;;;;2.54;35.34;95637.22;4997524;28;20078;-82
2023/04/20 00:15:10;;;;;;;7.22;4.45;;;;;;;2.06;34.46;95636.72;4998918;28;20055;-82
2023/04/20 00:17:37;;;;;;;16.83;9.43;;;;;;;1.81;43.46;95630.78;4997517;28;20089;-82
2023/04/20 00:20:03;;;;;;;6.97;3.72;;;;;;;2.19;34.42;95620.78;4996668;28;20064;-82
2023/04/20 00:22:29;;;;;;;5.95;3.88;;;;;;;2.61;34.36;95609.47;4982914;28;20132;-82
2023/04/20 00:24:55;;;;;;;5.45;3.55;;;;;;;2.63;33.39;95604.91;4998305;28;20075;-82
2023/04/20 00:27:20;;;;;;;9.00;3.92;;;;;;;2.98;33.12;95599.44;4965769;28;20533;-83
2023/04/20 00:29:46;;;;;;;6.13;3.70;;;;;;;3.20;32.91;95587.09;4981698;28;20069;-82
2023/04/20 00:32:11;;;;;;;6.15;3.63;;;;;;;3.32;32.46;95588.66;4997374;28;20174;-82
2023/04/20 00:34:36;;;;;;;5.78;3.28;;;;;;;3.39;32.27;95583.69;4979457;28;20062;-83
2023/04/20 00:37:02;;;;;;;11.27;4.78;;;;;;;3.46;32.99;95582.22;4979894;28;20071;-82
2023/04/20 00:39:27;;;;;;;6.15;3.67;;;;;;;3.51;33.21;95580.00;4995804;28;20059;-82
2023/04/20 00:41:52;;;;;;;6.30;3.75;;;;;;;3.51;32.88;95573.94;4992948;28;20095;-82
2023/04/20 00:44:18;;;;;;;6.47;4.13;;;;;;;3.67;32.57;95568.97;4994575;28;20271;-82
2023/04/20 00:46:43;;;;;;;12.48;5.68;;;;;;;3.50;33.90;95567.00;4998514;28;20609;-82
2023/04/20 00:49:09;;;;;;;11.02;5.75;;;;;;;3.53;34.13;95571.97;4993673;28;20072;-83
2023/04/20 00:51:35;;;;;;;6.25;3.95;;;;;;;3.74;33.40;95566.63;4962137;28;20047;-82
2023/04/20 00:54:01;;;;;;;7.80;4.65;;;;;;;3.65;35.77;95567.44;4996433;28;20463;-83
2023/04/20 00:56:26;;;;;;;7.93;4.43;;;;;;;3.20;36.38;95558.97;4996012;28;20072;-82
2023/04/20 00:58:51;;;;;;;8.63;4.95;;;;;;;3.60;36.62;95559.94;4980223;28;20045;-82
2023/04/20 01:01:17;;;;;;;6.88;4.63;;;;;;;3.81;37.37;95567.75;4976016;28;20485;-78
2023/04/20 01:03:45;;;;;;;6.80;4.43;;;;;;;3.64;39.17;95563.97;4972736;28;20682;-78
2023/04/20 01:06:12;;;;;;;9.82;4.90;;;;;;;4.08;38.97;95565.41;4990711;28;20119;-78
2023/04/20 01:08:48;;;;;;;5.65;4.10;;;;;;;3.68;40.90;95552.19;4994936;28;20073;-78
2023/04/20 01:11:13;;;;;;;9.82;6.30;;;;;;;3.73;40.78;95550.94;5014548;28;20057;-78
2023/04/20 01:13:39;;;;;;;8.48;4.88;;;;;;;3.73;41.08;95548.31;5017102;28;20205;-79
2023/04/20 01:16:04;;;;;;;5.20;4.03;;;;;;;4.14;40.14;95543.78;5011988;28;20074;-79
2023/04/20 01:18:43;;;;;;;8.45;4.32;;;;;;;4.19;40.33;95541.53;4997089;28;20069;-78
2023/04/20 01:21:09;;;;;;;8.73;5.30;;;;;;;4.31;40.62;95534.34;4990182;28;20083;-78
2023/04/20 01:23:34;;;;;;;5.03;3.88;;;;;;;4.47;40.60;95530.28;4998047;28;20335;-79
2023/04/20 01:26:00;;;;;;;7.38;4.07;;;;;;;4.56;39.53;95521.50;5014806;28;20524;-78
2023/04/20 01:28:25;;;;;;;6.35;4.20;;;;;;;4.44;40.43;95515.59;5010768;28;20070;-78
2023/04/20 01:30:51;;;;;;;6.28;3.90;;;;;;;4.53;40.64;95513.88;5016263;28;20411;-78
2023/04/20 01:33:16;;;;;;;9.82;4.07;;;;;;;4.64;40.11;95510.28;5012686;28;20077;-78
2023/04/20 01:35:42;;;;;;;8.15;4.50;;;;;;;4.41;39.54;95515.88;5031843;28;20039;-78
2023/04/20 01:38:16;;;;;;;5.75;3.75;;;;;;;4.42;40.50;95498.25;5015978;28;20704;-78
2023/04/20 01:40:41;;;;;;;6.18;4.35;;;;;;;4.52;39.70;95508.78;4996810;28;20094;-78
2023/04/20 01:43:09;;;;;;;7.30;4.07;;;;;;;4.68;39.93;95498.47;5014950;28;20064;-78
2023/04/20 01:45:35;;;;;;;7.38;4.28;;;;;;;4.41;40.37;95492.16;5015014;28;20075;-78
2023/04/20 01:48:00;;;;;;;7.07;4.63;;;;;;;4.64;39.38;95483.91;5015919;28;20348;-78
2023/04/20 01:50:26;;;;;;;13.18;6.65;;;;;;;4.67;39.93;95486.25;5014542;28;20029;-78
2023/04/20 01:52:51;;;;;;;9.90;4.45;;;;;;;4.41;38.67;95476.31;5016446;28;20059;-77
2023/04/20 01:55:16;;;;;;;6.00;4.20;;;;;;;4.45;39.45;95476.84;5015145;28;20529;-79
2023/04/20 01:57:43;;;;;;;8.30;4.60;;;;;;;4.49;39.63;95470.31;5017802;28;20093;-79
2023/04/20 02:00:10;;;;;;;9.32;4.90;;;;;;;4.51;38.82;95472.81;5015185;28;20088;-78
2023/04/20 02:02:35;;;;;;;5.97;3.80;;;;;;;4.76;38.95;95466.06;5016060;28;20150;-78
2023/04/20 02:05:01;;;;;;;7.75;4.20;;;;;;;4.87;38.77;95465.06;5020237;28;20084;-78
2023/04/20 02:07:26;;;;;;;6.03;4.05;;;;;;;5.01;38.01;95466.41;5018239;28;20447;-78
2023/04/20 02:09:51;;;;;;;12.50;7.63;;;;;;;4.70;38.83;95464.84;5020060;28;20482;-77
2023/04/20 02:12:17;;;;;;;6.15;4.35;;;;;;;4.99;38.09;95463.06;5014196;28;20073;-78
2023/04/20 02:14:42;;;;;;;9.10;4.78;;;;;;;4.91;38.90;95455.88;4999387;28;20270;-78
2023/04/20 02:17:08;;;;;;;9.55;4.85;;;;;;;4.79;38.63;95459.66;4998961;28;20726;-78
2023/04/20 02:19:33;;;;;;;7.85;4.88;;;;;;;4.83;38.82;95453.97;4972925;28;20049;-78
2023/04/20 02:21:59;;;;;;;7.75;5.45;;;;;;;4.64;39.89;95457.53;5003178;28;20085;-78
2023/04/20 02:24:24;;;;;;;11.38;6.75;;;;;;;4.63;39.92;95452.41;4999358;28;20073;-77
2023/04/20 02:26:50;;;;;;;11.70;7.60;;;;;;;4.56;39.78;95458.22;5000879;28;20533;-78
2023/04/20 02:29:15;;;;;;;9.15;6.38;;;;;;;4.56;39.30;95458.22;5019052;28;20099;-78
2023/04/20 02:31:40;;;;;;;10.70;5.90;;;;;;;4.39;40.10;95451.09;5019249;28;20052;-77
2023/04/20 02:34:08;;;;;;;10.75;6.35;;;;;;;4.16;41.31;95459.31;5020124;28;20171;-77
2023/04/20 02:36:34;;;;;;;10.45;5.57;;;;;;;4.35;39.73;95449.72;5020618;28;20077;-77
2023/04/20 02:38:59;;;;;;;8.40;5.78;;;;;;;4.40;39.48;95443.03;5017702;28;20080;-77
2023/04/20 02:41:24;;;;;;;9.15;5.78;;;;;;;4.44;40.16;95449.69;5005652;28;20562;-77
2023/04/20 02:43:50;;;;;;;11.73;6.03;;;;;;;4.41;39.94;95438.56;4982307;28;20145;-78
2023/04/20 02:46:16;;;;;;;11.32;6.15;;;;;;;4.33;40.42;95445.38;4999915;28;20077;-78
2023/04/20 02:48:42;;;;;;;8.50;5.40;;;;;;;4.18;40.92;95437.13;4998918;28;20425;-78
2023/04/20 02:51:07;;;;;;;14.02;6.03;;;;;;;4.43;39.97;95434.00;4989753;28;20287;-78
2023/04/20 02:53:33;;;;;;;9.30;6.18;;;;;;;4.07;41.12;95426.72;4975509;28;20086;-77
2023/04/20 02:55:58;;;;;;;10.10;5.20;;;;;;;4.54;39.63;95425.06;4975827;28;20048;-78
2023/04/20 02:58:24;;;;;;;11.85;5.88;;;;;;;4.71;39.13;95421.69;4993769;28;20523;-78
2023/04/20 03:00:49;;;;;;;10.93;5.10;;;;;;;4.69;39.29;95426.25;4993584;28;20089;-78
2023/04/20 03:03:15;;;;;;;9.13;5.22;;;;;;;4.75;39.46;95413.47;4958713;28;20111;-78
2023/04/20 03:05:40;;;;;;;9.52;5.35;;;;;;;4.75;39.45;95414.31;4992673;28;20072;-78
2023/04/20 03:08:06;;;;;;;7.60;5.10;;;;;;;4.86;39.30;95409.81;4994755;28;20074;-78
2023/04/20 03:10:31;;;;;;;11.65;5.80;;;;;;;4.82;39.30;95409.25;4996353;28;20097;-78
2023/04/20 03:12:57;;;;;;;14.43;9.23;;;;;;;4.84;39.64;95405.50;4989000;28;20071;-78
2023/04/20 03:15:23;;;;;;;10.23;6.10;;;;;;;4.77;39.64;95409.72;4978514;28;20043;-78
2023/04/20 03:17:48;;;;;;;9.25;5.57;;;;;;;4.82;39.47;95404.84;4982569;28;20124;-78
2023/04/20 03:20:13;;;;;;;13.70;9.52;;;;;;;4.44;40.56;95404.88;4996734;28;20075;-78
2023/04/20 03:22:39;;;;;;;12.00;7.05;;;;;;;4.47;40.61;95400.25;5017582;28;20494;-78
2023/04/20 03:25:05;;;;;;;9.43;4.95;;;;;;;4.75;39.80;95398.47;5001844;28;20074;-78
2023/04/20 03:27:30;;;;;;;9.93;5.78;;;;;;;4.67;39.84;95396.59;5002501;28;20054;-78
2023/04/20 03:29:56;;;;;;;13.00;6.68;;;;;;;4.59;40.34;95396.47;5002387;28;20072;-78
2023/04/20 03:32:21;;;;;;;14.25;8.82;;;;;;;4.51;40.70;95391.94;5002270;28;20603;-78
2023/04/20 03:34:46;;;;;;;8.65;5.40;;;;;;;4.81;39.42;95399.69;5015582;28;20106;-78
2023/04/20 03:37:13;;;;;;;9.60;6.15;;;;;;;4.72;39.97;95393.50;5018459;28;20080;-78
2023/04/20 03:39:38;;;;;;;8.15;5.47;;;;;;;4.49;41.06;95393.06;5016189;28;20057;-78
2023/04/20 03:42:05;;;;;;;11.20;6.15;;;;;;;4.41;40.89;95391.97;5018551;28;20076;-78
2023/04/20 03:44:30;;;;;;;12.13;7.63;;;;;;;4.45;40.93;95389.84;5018436;28;20049;-78
2023/04/20 03:46:56;;;;;;;8.05;5.35;;;;;;;4.37;41.41;95395.03;5018801;28;20056;-78
2023/04/20 03:49:22;;;;;;;8.95;5.28;;;;;;;4.61;40.29;95385.78;5016943;28;20190;-78
2023/04/20 03:51:47;;;;;;;6.13;4.65;;;;;;;4.62;40.45;95385.63;4985334;28;20155;-78
2023/04/20 03:54:13;;;;;;;9.60;5.05;;;;;;;4.19;41.38;95378.16;4999940;28;20869;-78
2023/04/20 03:56:38;;;;;;;8.45;5.40;;;;;;;4.47;41.20;95374.75;5017164;28;20072;-78
2023/04/20 03:59:03;;;;;;;14.52;8.93;;;;;;;4.48;41.14;95376.41;5018389;28;20058;-78
2023/04/20 04:01:29;;;;;;;10.40;5.55;;;;;;;4.23;41.86;95372.59;5031278;28;20069;-78
2023/04/20 04:03:54;;;;;;;11.30;5.13;;;;;;;4.36;41.18;95378.41;5016754;28;20062;-77
2023/04/20 04:06:20;;;;;;;10.77;6.03;;;;;;;4.37;42.06;95379.22;5016067;28;20336;-77
2023/04/20 04:08:45;;;;;;;9.70;5.53;;;;;;;4.32;42.57;95382.31;5008474;28;20077;-78
2023/04/20 04:11:11;;;;;;;7.63;5.68;;;;;;;4.49;41.29;95390.41;5015111;28;20048;-78
2023/04/20 04:13:36;;;;;;;6.55;4.72;;;;;;;4.52;41.51;95383.03;5000084;28;20078;-78
2023/04/20 04:16:01;;;;;;;9.73;5.47;;;;;;;4.32;41.75;95384.94;5014920;28;20151;-78
2023/04/20 04:18:31;;;;;;;10.18;6.13;;;;;;;4.38;41.80;95381.72;5017356;28;20060;-78
2023/04/20 04:20:56;;;;;;;10.48;6.00;;;;;;;4.29;41.61;95388.66;5000281;28;20095;-78
2023/04/20 04:23:22;;;;;;;11.48;6.22;;;;;;;4.45;41.41;95382.78;5017455;28;20052;-78
2023/04/20 04:25:47;;;;;;;12.38;7.10;;;;;;;4.58;41.39;95387.75;5016704;28;20084;-78
2023/04/20 04:28:16;;;;;;;7.03;4.93;;;;;;;4.65;41.88;95379.22;4999764;28;20080;-78
2023/04/20 04:30:41;;;;;;;9.68;6.10;;;;;;;4.61;42.34;95389.25;5017732;28;20061;-77
2023/04/20 04:33:09;;;;;;;9.98;6.25;;;;;;;4.62;42.09;95383.00;5001190;28;20064;-78
2023/04/20 04:35:34;;;;;;;11.13;6.63;;;;;;;4.66;41.65;95381.72;5001989;28;20745;-77
2023/04/20 04:38:00;;;;;;;11.98;5.68;;;;;;;4.57;41.45;95379.97;5015423;28;20065;-78
2023/04/20 04:40:25;;;;;;;8.00;4.80;;;;;;;4.70;41.32;95379.63;5014297;28;20354;-78
2023/04/20 04:42:51;;;;;;;7.88;5.43;;;;;;;4.32;42.27;95371.75;5034264;28;20867;-77
2023/04/20 04:45:17;;;;;;;8.95;5.22;;;;;;;4.40;42.04;95382.41;5000490;28;20075;-78
2023/04/20 04:47:42;;;;;;;7.38;5.45;;;;;;;4.52;41.79;95387.50;5017517;28;20094;-78
2023/04/20 04:50:09;;;;;;;7.78;5.00;;;;;;;4.37;42.14;95384.47;5012712;28;20450;-78
2023/04/20 04:52:35;;;;;;;9.98;5.13;;;;;;;3.96;43.58;95375.03;4991969;28;20123;-78
2023/04/20 04:55:00;;;;;;;12.82;5.60;;;;;;;4.02;43.02;95371.00;4985167;28;20089;-78
2023/04/20 04:57:26;;;;;;;7.68;4.90;;;;;;;3.89;43.72;95371.31;4974750;28;20112;-78
2023/04/20 04:59:51;;;;;;;7.75;4.80;;;;;;;3.69;43.63;95366.09;4973901;28;20474;-77
2023/04/20 05:02:17;;;;;;;7.00;4.70;;;;;;;3.89;43.81;95372.16;4996802;28;20068;-78
2023/04/20 05:04:42;;;;;;;7.63;4.78;;;;;;;4.16;43.23;95378.47;4997327;28;20091;-78
2023/04/20 05:07:10;;;;;;;6.38;4.20;;;;;;;4.33;42.07;95379.50;5016505;28;20060;-78
2023/04/20 05:09:36;;;;;;;8.68;5.13;;;;;;;4.62;41.83;95375.06;5016318;28;20148;-78
2023/04/20 05:12:02;;;;;;;9.38;6.43;;;;;;;4.52;42.00;95371.69;5000003;28;20032;-77
2023/04/20 05:14:30;;;;;;;7.18;5.45;;;;;;;4.43;42.02;95368.91;5014317;28;20413;-77
2023/04/20 05:16:55;;;;;;;7.10;5.18;;;;;;;4.43;43.08;95376.81;4999567;28;20086;-77
2023/04/20 05:19:20;;;;;;;7.20;5.13;;;;;;;4.63;42.80;95373.28;5000419;28;20058;-78
2023/04/20 05:21:46;;;;;;;7.60;5.60;;;;;;;4.64;42.77;95375.78;4997651;28;20086;-77
2023/04/20 05:24:11;;;;;;;7.38;5.25;;;;;;;4.73;42.40;95371.41;5028275;28;20089;-77
2023/04/20 05:26:36;;;;;;;8.93;5.28;;;;;;;4.94;42.08;95373.78;5017391;28;20533;-77
2023/04/20 05:29:02;;;;;;;7.85;5.55;;;;;;;5.01;42.49;95365.28;5013561;28;20374;-78
2023/04/20 05:31:28;;;;;;;8.13;5.32;;;;;;;5.07;42.31;95365.53;5015766;28;20062;-78
2023/04/20 05:33:53;;;;;;;5.90;4.82;;;;;;;5.13;41.71;95371.22;5031026;28;20077;-78
2023/04/20 05:36:19;;;;;;;9.05;6.35;;;;;;;4.69;42.23;95376.16;4982777;28;20071;-78
2023/04/20 05:38:44;;;;;;;6.88;4.80;;;;;;;5.06;41.74;95371.81;5004095;28;20560;-77
2023/04/20 05:41:10;;;;;;;6.72;4.72;;;;;;;5.12;41.72;95378.31;5003426;28;20045;-77
2023/04/20 05:43:35;;;;;;;7.38;4.80;;;;;;;4.70;42.49;95369.91;5001414;28;20528;-77
2023/04/20 05:46:00;;;;;;;6.35;4.93;;;;;;;5.03;41.92;95365.97;5002081;28;20198;-77
2023/04/20 05:48:26;;;;;;;7.40;4.72;;;;;;;5.17;41.80;95365.47;4987455;28;20284;-78
2023/04/20 05:50:52;;;;;;;7.70;4.35;;;;;;;5.18;41.87;95366.31;5020219;28;20064;-78
2023/04/20 05:53:18;;;;;;;4.57;3.53;;;;;;;5.30;42.08;95369.53;5018930;28;20599;-77
2023/04/20 05:55:43;;;;;;;4.60;3.60;;;;;;;5.28;42.05;95366.25;5002832;28;20046;-77
2023/04/20 05:58:09;;;;;;;3.83;3.47;;;;;;;5.12;42.45;95366.91;5018608;28;20037;-77
2023/04/20 06:00:34;;;;;;;4.60;3.65;;;;;;;5.27;42.17;95369.88;5018323;28;20068;-77
2023/04/20 06:03:00;;;;;;;5.25;4.00;;;;;;;5.50;41.25;95369.41;5004149;28;20055;-77
2023/04/20 06:05:25;;;;;;;5.20;3.97;;;;;;;5.50;41.31;95369.41;5001935;28;20291;-77
2023/04/20 06:07:50;;;;;;;3.20;2.90;;;;;;;5.74;40.99;95361.69;5000571;28;20068;-77
2023/04/20 06:10:16;;;;;;;3.20;2.90;;;;;;;5.86;41.10;95358.78;5018772;28;20092;-77
2023/04/20 06:12:41;;;;;;;3.47;2.90;;;;;;;5.85;41.20;95373.81;4999779;28;20081;-77
2023/04/20 06:15:09;;;;;;;2.95;2.65;;;;;;;6.02;40.03;95373.91;4984490;28;20109;-77
2023/04/20 06:17:36;;;;;;;3.50;3.20;;;;;;;6.14;40.27;95374.50;5014177;28;20542;-77
2023/04/20 06:20:01;;;;;;;3.60;3.10;;;;;;;6.25;40.42;95368.09;5016209;28;20048;-77
2023/04/20 06:22:27;;;;;;;3.22;2.92;;;;;;;6.05;39.91;95370.16;5003302;28;20037;-77
2023/04/20 06:24:52;;;;;;;6.43;4.70;;;;;;;6.25;40.18;95366.28;5016770;28;20045;-77
2023/04/20 06:27:17;;;;;;;3.35;2.97;;;;;;;6.21;40.50;95372.88;5003379;28;20504;-77
2023/04/20 06:29:43;;;;;;;2.83;2.60;;;;;;;6.35;39.95;95366.19;5002208;28;20041;-77
2023/04/20 06:32:08;;;;;;;5.00;3.25;;;;;;;6.35;40.22;95365.34;5016984;28;20040;-77
2023/04/20 06:34:34;;;;;;;2.70;2.50;;;;;;;6.61;39.77;95357.41;5001563;28;20037;-77
2023/04/20 06:36:59;;;;;;;2.55;2.20;;;;;;;6.66;39.54;95366.69;5019127;28;20095;-77
2023/04/20 06:39:24;;;;;;;2.45;2.25;;;;;;;6.57;39.21;95360.53;5003305;28;20107;-78
2023/04/20 06:41:50;;;;;;;2.95;2.65;;;;;;;6.08;39.88;95362.72;5017804;28;20041;-78
2023/04/20 06:44:15;;;;;;;2.15;2.05;;;;;;;6.31;39.80;95367.47;5019018;28;20536;-78
2023/04/20 06:46:41;;;;;;;2.40;2.20;;;;;;;6.34;40.17;95363.69;5001567;28;20043;-67
2023/04/20 06:49:06;;;;;;;2.08;1.98;;;;;;;6.66;39.47;95358.75;5015885;28;20041;-68
2023/04/20 06:51:32;;;;;;;2.42;2.22;;;;;;;6.92;39.26;95355.19;5018926;28;20018;-68
2023/04/20 06:53:57;;;;;;;2.45;2.25;;;;;;;7.01;39.19;95360.31;5018889;28;20215;-67
2023/04/20 06:56:22;;;;;;;2.40;2.20;;;;;;;7.18;39.06;95347.16;5014740;28;20072;-67
2023/04/20 06:58:48;;;;;;;2.42;2.10;;;;;;;7.39;38.67;95351.13;5017328;28;20071;-67
2023/04/20 07:01:13;;;;;;;2.55;2.35;;;;;;;7.39;38.28;95353.78;5016100;28;20083;-68
2023/04/20 07:03:39;;;;;;;2.17;2.08;;;;;;;7.24;37.88;95343.81;5020330;28;20060;-67
2023/04/20 07:06:06;;;;;;;2.35;2.15;;;;;;;7.26;38.48;95357.75;5016248;28;20072;-67
2023/04/20 07:08:32;;;;;;;2.35;2.15;;;;;;;7.39;38.48;95348.47;5016389;28;20078;-67
2023/04/20 07:10:57;;;;;;;2.78;2.50;;;;;;;7.33;38.52;95349.13;5018064;28;20040;-67
2023/04/20 07:13:22;;;;;;;3.65;2.20;;;;;;;7.58;38.37;95352.63;5016285;28;20481;-68
2023/04/20 07:15:48;;;;;;;2.45;2.25;;;;;;;7.44;39.01;95350.66;5013213;28;20050;-67
2023/04/20 07:18:13;;;;;;;2.38;2.17;;;;;;;7.64;38.10;95365.22;5019199;28;20029;-68
2023/04/20 07:20:39;;;;;;;4.68;3.40;;;;;;;7.62;38.19;95361.09;5012993;28;20045;-67
2023/04/20 07:23:04;;;;;;;1.98;1.88;;;;;;;7.79;38.19;95360.09;5016401;28;20040;-68
2023/04/20 07:25:32;;;;;;;2.30;2.10;;;;;;;7.78;38.01;95357.59;5018830;28;20080;-67
2023/04/20 07:27:57;;;;;;;2.25;2.05;;;;;;;7.94;37.76;95353.28;5016086;28;20102;-67
2023/04/20 07:30:23;;;;;;;2.38;1.90;;;;;;;7.83;37.76;95362.41;5012629;28;20339;-68
2023/04/20 07:32:48;;;;;;;2.53;2.33;;;;;;;7.67;37.79;95356.09;5015060;28;20050;-67
2023/04/20 07:35:14;;;;;;;7.40;5.45;;;;;;;7.48;37.77;95362.56;5016302;28;20051;-68
2023/04/20 07:37:40;;;;;;;5.97;4.22;;;;;;;7.28;38.22;95360.22;5016728;28;20068;-68
2023/04/20 07:40:06;;;;;;;2.60;2.40;;;;;;;7.38;38.55;95362.72;5018027;28;20696;-68
2023/04/20 07:42:35;;;;;;;3.30;2.55;;;;;;;7.26;38.71;95365.69;5017945;28;20128;-67
2023/04/20 07:45:04;;;;;;;2.92;2.67;;;;;;;7.27;38.33;95372.63;5011528;28;20538;-67
2023/04/20 07:47:30;;;;;;;5.03;3.00;;;;;;;7.14;39.39;95369.63;5016475;28;20074;-68
2023/04/20 07:49:56;;;;;;;2.50;2.30;;;;;;;7.24;38.69;95367.66;5016770;28;20065;-68
2023/04/20 07:52:22;;;;;;;2.50;2.25;;;;;;;7.20;38.67;95368.97;5016500;28;20037;-68
2023/04/20 07:54:48;;;;;;;2.10;1.90;;;;;;;7.01;39.84;95368.28;5017337;28;20144;-68
2023/04/20 07:57:14;;;;;;;4.65;3.33;;;;;;;6.86;39.67;95364.59;5015419;28;20071;-68
2023/04/20 07:59:39;;;;;;;2.90;2.60;;;;;;;6.94;39.97;95361.97;5017892;28;20108;-68
2023/04/20 08:02:05;;;;;;;2.70;2.45;;;;;;;7.00;39.93;95366.63;5011851;28;20056;-68
2023/04/20 08:04:30;;;;;;;4.68;3.33;;;;;;;6.72;40.10;95366.88;5011689;28;20134;-67
2023/04/20 08:06:55;;;;;;;3.80;3.38;;;;;;;6.66;40.06;95370.13;4998956;28;20051;-68
2023/04/20 08:09:21;;;;;;;2.65;2.45;;;;;;;6.64;40.54;95366.84;4997878;28;20504;-68
2023/04/20 08:11:47;;;;;;;9.30;5.78;;;;;;;6.52;40.40;95366.28;4993592;28;20042;-68
2023/04/20 08:14:13;;;;;;;2.97;2.70;;;;;;;6.45;40.60;95366.06;4992766;28;20532;-68
2023/04/20 08:16:39;;;;;;;3.70;3.10;;;;;;;6.36;40.87;95369.66;4992873;28;20191;-68
2023/04/20 08:19:09;;;;;;;3.08;2.80;;;;;;;6.18;41.28;95373.19;4998265;28;20029;-68
2023/04/20 08:21:40;;;;;;;7.07;5.65;;;;;;;6.17;42.08;95370.69;5010490;28;20083;-68
2023/04/20 08:24:06;;;;;;;2.40;2.20;;;;;;;6.61;40.67;95362.69;5008657;28;20458;-68
2023/04/20 08:26:31;;;;;;;3.95;3.45;;;;;;;6.52;41.11;95363.63;4996689;28;20128;-68
2023/04/20 08:28:57;;;;;;;4.25;3.75;;;;;;;6.67;41.01;95371.81;4995180;28;20393;-68
2023/04/20 08:31:22;;;;;;;2.70;2.50;;;;;;;6.55;40.84;95357.19;4991920;28;20122;-68
2023/04/20 08:33:48;;;;;;;3.17;2.65;;;;;;;6.71;41.12;95354.63;4993680;28;20410;-68
2023/04/20 08:36:13;;;;;;;2.83;2.45;;;;;;;7.04;40.82;95359.16;4997978;28;20613;-68
2023/04/20 08:38:38;;;;;;;2.10;2.00;;;;;;;7.32;40.05;95355.44;4999656;28;20066;-68
2023/04/20 08:41:07;;;;;;;4.18;3.15;;;;;;;7.13;40.59;95365.31;4998612;28;20114;-68
2023/04/20 08:43:32;;;;;;;2.45;1.80;;;;;;;7.25;40.68;95353.41;4996042;28;20807;-68
2023/04/20 08:45:58;;;;;;;6.63;4.80;;;;;;;7.37;39.87;95356.59;4993951;28;20073;-67
2023/04/20 08:48:25;;;;;;;14.52;10.10;;;;;;;7.18;40.18;95355.09;4997142;28;20499;-68
2023/04/20 08:50:50;;;;;;;8.57;6.38;;;;;;;7.49;40.09;95365.06;4995784;28;20042;-68
2023/04/20 08:53:16;;;;;;;8.00;5.47;;;;;;;7.30;40.23;95365.34;4997320;28;20510;-68
2023/04/20 08:55:41;;;;;;;2.20;1.90;;;;;;;7.58;39.91;95370.34;4998371;28;20044;-68
2023/04/20 08:58:06;;;;;;;6.38;4.47;;;;;;;7.30;39.91;95373.28;4997099;28;20498;-68
2023/04/20 09:00:32;;;;;;;2.05;1.95;;;;;;;7.29;40.53;95375.13;4997939;28;20458;-68
2023/04/20 09:02:59;;;;;;;3.15;2.13;;;;;;;7.43;40.23;95371.00;4996359;28;20359;-67
2023/04/20 09:05:26;;;;;;;8.13;5.53;;;;;;;7.50;40.01;95372.00;4998379;28;20074;-68
2023/04/20 09:07:55;;;;;;;2.00;1.90;;;;;;;7.51;39.29;95375.47;4999563;28;20354;-67
2023/04/20 09:10:22;;;;;;;2.53;2.33;;;;;;;7.54;39.55;95381.28;4997080;28;20570;-68
2023/04/20 09:12:48;;;;;;;2.60;2.40;;;;;;;7.24;39.92;95370.31;4996291;28;20410;-68
2023/04/20 09:15:26;;;;;;;2.00;1.90;;;;;;;7.36;39.76;95368.19;4998460;28;20347;-68
2023/04/20 09:17:51;;;;;;;2.22;2.03;;;;;;;7.56;38.63;95367.88;4996121;28;20077;-68
2023/04/20 09:20:29;;;;;;;2.85;2.58;;;;;;;7.63;38.56;95381.28;4997750;28;20509;-68
2023/04/20 09:22:54;;;;;;;5.97;3.33;;;;;;;7.06;39.84;95381.03;4996256;28;20056;-68
2023/04/20 09:25:20;;;;;;;1.80;1.70;;;;;;;7.16;39.94;95388.81;4997479;28;20395;-68
2023/04/20 09:27:56;;;;;;;1.92;1.83;;;;;;;7.27;39.80;95391.16;4997028;28;20069;-68
2023/04/20 09:30:21;;;;;;;6.30;4.38;;;;;;;7.15;40.41;95388.00;4996981;28;20046;-68
2023/04/20 09:32:46;;;;;;;2.00;1.90;;;;;;;7.06;40.64;95388.13;4997988;28;20072;-68
2023/04/20 09:35:12;;;;;;;4.63;3.47;;;;;;;7.06;41.23;95388.13;4998384;28;20420;-68
2023/04/20 09:37:46;;;;;;;3.03;2.42;;;;;;;7.46;41.09;95383.91;4978886;28;20068;-68
2023/04/20 09:40:12;;;;;;;2.42;2.22;;;;;;;7.65;41.06;95389.91;4995781;28;20068;-68
2023/04/20 09:42:37;;;;;;;2.10;2.00;;;;;;;7.97;40.25;95390.91;4995622;28;20447;-68
2023/04/20 09:45:03;;;;;;;2.40;2.20;;;;;;;8.00;40.61;95393.25;4994752;28;20363;-68
2023/04/20 09:47:29;;;;;;;7.35;5.13;;;;;;;8.11;40.03;95388.56;4980801;28;20347;-67
2023/04/20 09:49:55;;;;;;;3.00;2.70;;;;;;;8.04;40.26;95391.06;4996406;28;20503;-68
2023/04/20 09:52:20;;;;;;;7.40;5.65;;;;;;;8.08;39.51;95394.19;4993515;28;20402;-68
2023/04/20 09:54:46;;;;;;;2.85;2.58;;;;;;;7.92;40.00;95387.91;4997030;28;20108;-68
2023/04/20 09:57:11;;;;;;;7.18;5.53;;;;;;;7.83;39.49;95391.56;4995057;28;20527;-68
2023/04/20 09:59:37;;;;;;;5.38;4.00;;;;;;;7.71;39.77;95394.53;4997654;28;20033;-68
2023/04/20 10:02:07;;;;;;;3.78;3.15;;;;;;;7.59;39.65;95393.19;4979152;28;20072;-67
2023/04/20 10:04:32;;;;;;;2.75;2.55;;;;;;;7.32;40.56;95393.34;4997367;28;20050;-67
2023/04/20 10:07:02;;;;;;;16.27;11.20;;;;;;;7.06;41.04;95396.06;4995635;28;21068;-68
2023/04/20 10:09:29;;;;;;;3.30;3.00;;;;;;;7.03;41.19;95402.53;4997101;28;20136;-68
2023/04/20 10:12:04;;;;;;;5.78;3.97;;;;;;;7.05;40.75;95395.25;4994750;28;20387;-67
2023/04/20 10:14:34;;;;;;;9.25;5.32;;;;;;;7.06;41.27;95396.91;4994499;28;20030;-68
2023/04/20 10:17:10;;;;;;;4.03;3.35;;;;;;;6.88;41.57;95397.84;4992269;28;20067;-68
2023/04/20 10:19:42;;;;;;;4.30;3.15;;;;;;;6.84;41.45;95396.50;4997966;28;20050;-68
2023/04/20 10:22:09;;;;;;;6.72;5.28;;;;;;;6.38;42.87;95394.97;4996459;28;20111;-68
2023/04/20 10:24:36;;;;;;;5.70;4.85;;;;;;;6.62;42.42;95396.09;4997357;28;20068;-68
2023/04/20 10:27:02;;;;;;;5.85;4.40;;;;;;;6.89;43.01;95391.56;4999075;28;20054;-68
2023/04/20 10:29:28;;;;;;;7.85;3.90;;;;;;;7.44;41.93;95382.44;4998991;28;20060;-68
2023/04/20 10:31:56;;;;;;;4.95;4.10;;;;;;;7.96;41.91;95383.94;4999426;28;20026;-67
2023/04/20 10:34:35;;;;;;;10.30;6.82;;;;;;;8.02;40.68;95374.47;4995176;28;20034;-68
2023/04/20 10:37:07;;;;;;;5.43;4.15;;;;;;;8.25;39.55;95384.41;4999646;28;20525;-67
2023/04/20 10:39:33;;;;;;;6.20;4.07;;;;;;;8.56;39.40;95381.84;4998890;28;20048;-68
2023/04/20 10:42:00;;;;;;;9.35;6.00;;;;;;;8.60;39.16;95382.31;4999999;28;20560;-67
2023/04/20 10:44:25;;;;;;;8.10;5.38;;;;;;;8.53;38.84;95379.50;5000869;28;20545;-67
2023/04/20 10:46:51;;;;;;;13.80;9.27;;;;;;;8.65;39.05;95380.00;5000964;28;20052;-67
2023/04/20 10:49:17;;;;;;;14.13;7.88;;;;;;;8.66;39.09;95373.66;4997091;28;20058;-67
2023/04/20 10:51:48;;;;;;;9.55;6.55;;;;;;;8.95;38.69;95384.72;4990979;28;20034;-68
2023/04/20 10:54:14;;;;;;;5.95;4.30;;;;;;;9.29;38.53;95369.41;4997436;28;20575;-68
2023/04/20 10:56:41;;;;;;;12.35;8.10;;;;;;;9.22;37.52;95377.25;4998910;28;20045;-67
2023/04/20 10:59:10;;;;;;;11.68;8.00;;;;;;;9.63;37.06;95373.50;5003458;28;20045;-67
2023/04/20 11:01:36;;;;;;;6.80;4.50;;;;;;;10.10;36.61;95368.94;5001214;28;20140;-67
2023/04/20 11:04:01;;;;;;;7.28;5.03;;;;;;;10.03;36.83;95364.53;4996200;28;20107;-67
2023/04/20 11:06:27;;;;;;;13.00;8.07;;;;;;;10.29;36.10;95356.13;4990520;28;20038;-67
2023/04/20 11:08:52;;;;;;;7.95;5.18;;;;;;;10.71;35.63;95363.66;4995700;28;20045;-67
2023/04/20 11:11:26;;;;;;;5.90;4.60;;;;;;;10.62;35.72;95360.28;5001107;28;20026;-70
2023/04/20 11:13:52;;;;;;;9.55;6.68;;;;;;;10.60;35.09;95365.78;5001645;28;20744;-67
2023/04/20 11:16:17;;;;;;;27.33;19.95;;;;;;;10.54;34.51;95363.84;5000554;28;20052;-80
2023/04/20 11:18:49;;;;;;;29.33;20.45;;;;;;;10.56;34.32;95356.50;4997686;28;20034;-80
2023/04/20 11:21:14;;;;;;;10.93;7.60;;;;;;;10.66;33.93;95352.72;4998532;28;20537;-79
2023/04/20 11:23:40;;;;;;;42.13;29.27;;;;;;;10.44;35.89;95358.78;4983518;28;20038;-80
2023/04/20 11:26:06;;;;;;;8.32;5.43;;;;;;;11.16;35.54;95354.78;4998056;28;20046;-80
2023/04/20 11:28:33;;;;;;;16.48;9.70;;;;;;;11.96;33.79;95351.22;4982754;28;20046;-80
2023/04/20 11:30:59;;;;;;;11.52;7.63;;;;;;;12.56;33.14;95344.66;4982357;28;20029;-81
2023/04/20 11:33:28;;;;;;;21.02;14.15;;;;;;;12.90;32.48;95341.13;4980773;28;20068;-81